createdAt,value
2016-08-17T00:00:54.848Z,12.78
2016-08-17T00:01:54.766Z,12.81
2016-08-17T00:02:54.783Z,12.87
2016-08-17T00:03:54.879Z,12.82
2016-08-17T00:04:54.817Z,12.87
2016-08-17T00:05:54.802Z,12.87
2016-08-17T00:06:54.789Z,12.85
2016-08-17T00:07:54.857Z,12.78
2016-08-17T00:08:54.859Z,12.77
2016-08-17T00:09:54.797Z,12.84
2016-08-17T00:10:54.900Z,12.71
2016-08-17T00:11:54.844Z,12.63
2016-08-17T00:12:54.811Z,12.63
2016-08-17T00:13:54.820Z,12.7
2016-08-17T00:14:54.798Z,12.63
2016-08-17T00:15:54.881Z,12.59
2016-08-17T00:16:54.826Z,12.54
2016-08-17T00:17:55.301Z,12.56
2016-08-17T00:18:55.075Z,12.64
2016-08-17T00:19:54.833Z,12.57
2016-08-17T00:20:54.832Z,12.48
2016-08-17T00:21:54.862Z,12.45
2016-08-17T00:22:54.926Z,12.49
2016-08-17T00:23:54.810Z,12.56
2016-08-17T00:24:54.782Z,12.38
2016-08-17T00:25:54.833Z,12.48
2016-08-17T00:26:54.839Z,12.39
2016-08-17T00:27:54.842Z,12.31
2016-08-17T00:28:54.817Z,12.39
2016-08-17T00:29:54.832Z,12.34
2016-08-17T00:30:54.831Z,12.23
2016-08-17T00:31:54.859Z,12.27
2016-08-17T00:32:55.596Z,12.21
2016-08-17T00:33:54.796Z,12.39
2016-08-17T00:34:54.828Z,12.33
2016-08-17T00:35:54.823Z,12.23
2016-08-17T00:36:54.872Z,12.3
2016-08-17T00:37:54.805Z,12.33
2016-08-17T00:38:54.831Z,12.37
2016-08-17T00:39:54.816Z,12.16
2016-08-17T00:40:54.829Z,12.37
2016-08-17T00:41:54.864Z,12.26
2016-08-17T00:42:54.851Z,12.16
2016-08-17T00:43:54.841Z,12.16
2016-08-17T00:44:54.824Z,12.16
2016-08-17T00:45:54.848Z,12.13
2016-08-17T00:46:54.842Z,12.08
2016-08-17T00:47:54.875Z,12.15
2016-08-17T00:48:54.858Z,12.11
2016-08-17T00:49:54.848Z,12.11
2016-08-17T00:50:54.851Z,12.05
2016-08-17T00:51:54.852Z,12.05
2016-08-17T00:52:54.890Z,12.09
2016-08-17T00:53:54.997Z,12.04
2016-08-17T00:54:54.844Z,12.04
2016-08-17T00:55:54.823Z,11.9
2016-08-17T00:56:55.024Z,11.86
2016-08-17T00:57:54.815Z,11.93
2016-08-17T00:58:54.832Z,11.93
2016-08-17T00:59:54.873Z,11.96
2016-08-17T01:00:54.848Z,11.86
2016-08-17T01:01:54.859Z,11.85
2016-08-17T01:02:54.835Z,11.89
2016-08-17T01:03:54.841Z,11.75
2016-08-17T01:04:54.846Z,11.82
2016-08-17T01:05:54.846Z,11.83
2016-08-17T01:06:54.831Z,11.71
2016-08-17T01:07:54.858Z,11.61
2016-08-17T01:08:54.861Z,11.82
2016-08-17T01:09:54.843Z,11.78
2016-08-17T01:10:54.849Z,11.71
2016-08-17T01:11:54.843Z,11.72
2016-08-17T01:12:54.830Z,11.67
2016-08-17T01:13:54.862Z,11.7
2016-08-17T01:14:54.868Z,11.77
2016-08-17T01:15:54.819Z,11.67
2016-08-17T01:16:54.831Z,11.74
2016-08-17T01:17:54.838Z,11.53
2016-08-17T01:18:54.840Z,11.7
2016-08-17T01:19:54.899Z,11.74
2016-08-17T01:20:54.855Z,11.59
2016-08-17T01:21:54.831Z,11.67
2016-08-17T01:22:54.844Z,11.64
2016-08-17T01:23:54.853Z,11.71
2016-08-17T01:24:54.863Z,11.71
2016-08-17T01:25:54.848Z,11.64
2016-08-17T01:26:54.828Z,11.64
2016-08-17T01:27:54.852Z,11.64
2016-08-17T01:28:54.845Z,11.57
2016-08-17T01:29:54.850Z,11.52
2016-08-17T01:30:54.849Z,11.65
2016-08-17T01:31:54.851Z,11.59
2016-08-17T01:32:54.862Z,11.62
2016-08-17T01:33:54.871Z,11.61
2016-08-17T01:34:54.838Z,11.68
2016-08-17T01:35:54.857Z,11.62
2016-08-17T01:36:54.856Z,11.57
2016-08-17T01:37:54.862Z,11.52
2016-08-17T01:38:54.862Z,11.53
2016-08-17T01:39:54.862Z,11.59
2016-08-17T01:40:54.858Z,11.57
2016-08-17T01:41:54.867Z,11.56
2016-08-17T01:42:54.886Z,11.36
2016-08-17T01:43:54.864Z,11.46
2016-08-17T01:44:54.894Z,11.43
2016-08-17T01:45:54.869Z,11.43
2016-08-17T01:46:54.907Z,11.41
2016-08-17T01:47:54.876Z,11.41
2016-08-17T01:48:54.884Z,11.43
2016-08-17T01:49:54.849Z,11.36
2016-08-17T01:50:54.930Z,11.36
2016-08-17T01:51:54.878Z,11.43
2016-08-17T01:52:54.898Z,11.39
2016-08-17T01:53:54.878Z,11.46
2016-08-17T01:54:54.909Z,11.53
2016-08-17T01:55:54.881Z,11.32
2016-08-17T01:56:55.149Z,11.43
2016-08-17T01:57:54.885Z,11.36
2016-08-17T01:58:54.879Z,11.32
2016-08-17T01:59:54.871Z,11.41
2016-08-17T02:00:54.873Z,11.38
2016-08-17T02:01:54.899Z,11.29
2016-08-17T02:02:54.876Z,11.32
2016-08-17T02:03:54.901Z,11.28
2016-08-17T02:04:54.899Z,11.34
2016-08-17T02:05:54.878Z,11.43
2016-08-17T02:06:54.893Z,11.34
2016-08-17T02:07:54.911Z,11.29
2016-08-17T02:08:55.031Z,11.35
2016-08-17T02:09:54.898Z,11.32
2016-08-17T02:10:54.896Z,11.27
2016-08-17T02:11:54.876Z,11.31
2016-08-17T02:12:54.880Z,11.27
2016-08-17T02:13:54.922Z,11.27
2016-08-17T02:14:54.974Z,11.25
2016-08-17T02:15:54.898Z,11.38
2016-08-17T02:16:54.895Z,11.29
2016-08-17T02:17:54.898Z,11.27
2016-08-17T02:18:54.878Z,11.25
2016-08-17T02:19:54.881Z,11.28
2016-08-17T02:20:54.914Z,11.21
2016-08-17T02:21:54.883Z,11.11
2016-08-17T02:22:54.894Z,11.14
2016-08-17T02:23:54.957Z,11.03
2016-08-17T02:24:54.901Z,11.1
2016-08-17T02:25:54.882Z,11.07
2016-08-17T02:26:54.905Z,11.16
2016-08-17T02:27:54.911Z,11.11
2016-08-17T02:28:54.910Z,11.07
2016-08-17T02:29:54.909Z,11.13
2016-08-17T02:30:54.914Z,11.11
2016-08-17T02:31:54.920Z,11.21
2016-08-17T02:32:54.911Z,11.06
2016-08-17T02:33:54.895Z,11.06
2016-08-17T02:34:54.905Z,11.03
2016-08-17T02:35:54.896Z,11.03
2016-08-17T02:36:54.888Z,11.1
2016-08-17T02:37:54.902Z,11.06
2016-08-17T02:38:55.374Z,11.02
2016-08-17T02:39:54.894Z,11.1
2016-08-17T02:40:54.915Z,10.99
2016-08-17T02:41:54.896Z,11.09
2016-08-17T02:42:54.911Z,11.02
2016-08-17T02:43:54.908Z,10.95
2016-08-17T02:44:55.220Z,10.95
2016-08-17T02:45:54.940Z,10.99
2016-08-17T02:46:54.912Z,10.92
2016-08-17T02:47:54.905Z,10.95
2016-08-17T02:48:54.942Z,10.91
2016-08-17T02:49:54.933Z,10.89
2016-08-17T02:50:54.932Z,10.89
2016-08-17T02:51:54.933Z,10.73
2016-08-17T02:52:54.941Z,10.83
2016-08-17T02:53:54.959Z,10.94
2016-08-17T02:54:54.925Z,10.83
2016-08-17T02:55:54.927Z,10.89
2016-08-17T02:56:54.940Z,10.71
2016-08-17T02:57:54.957Z,10.8
2016-08-17T02:58:54.934Z,10.83
2016-08-17T02:59:55.143Z,10.65
2016-08-17T03:00:54.956Z,10.7
2016-08-17T03:01:54.936Z,10.78
2016-08-17T03:02:54.960Z,10.78
2016-08-17T03:03:54.956Z,10.68
2016-08-17T03:04:54.976Z,10.77
2016-08-17T03:05:55.426Z,10.65
2016-08-17T03:06:54.934Z,10.73
2016-08-17T03:07:54.972Z,10.66
2016-08-17T03:08:55.420Z,10.68
2016-08-17T03:09:54.954Z,10.68
2016-08-17T03:10:54.934Z,10.68
2016-08-17T03:11:54.973Z,10.58
2016-08-17T03:12:54.946Z,10.58
2016-08-17T03:13:54.939Z,10.51
2016-08-17T03:14:54.960Z,10.62
2016-08-17T03:15:54.929Z,10.62
2016-08-17T03:16:54.942Z,10.58
2016-08-17T03:17:54.959Z,10.47
2016-08-17T03:18:54.966Z,10.59
2016-08-17T03:19:54.930Z,10.6
2016-08-17T03:20:54.955Z,10.58
2016-08-17T03:21:54.951Z,10.62
2016-08-17T03:22:55.047Z,10.44
2016-08-17T03:23:54.944Z,10.6
2016-08-17T03:24:54.960Z,10.51
2016-08-17T03:25:54.937Z,10.53
2016-08-17T03:26:55.390Z,10.47
2016-08-17T03:27:54.941Z,10.51
2016-08-17T03:28:54.950Z,10.52
2016-08-17T03:29:55.479Z,10.47
2016-08-17T03:30:54.963Z,10.51
2016-08-17T03:31:54.929Z,10.55
2016-08-17T03:32:54.959Z,10.51
2016-08-17T03:33:54.959Z,10.46
2016-08-17T03:34:54.944Z,10.4
2016-08-17T03:35:54.965Z,10.47
2016-08-17T03:36:54.945Z,10.4
2016-08-17T03:37:54.974Z,10.44
2016-08-17T03:38:54.959Z,10.55
2016-08-17T03:39:54.980Z,10.53
2016-08-17T03:40:54.977Z,10.53
2016-08-17T03:41:55.007Z,10.43
2016-08-17T03:42:54.951Z,10.58
2016-08-17T03:43:54.975Z,10.56
2016-08-17T03:44:54.974Z,10.51
2016-08-17T03:45:54.973Z,10.44
2016-08-17T03:46:54.967Z,10.47
2016-08-17T03:47:54.958Z,10.43
2016-08-17T03:48:54.981Z,10.36
2016-08-17T03:49:54.944Z,10.36
2016-08-17T03:50:54.964Z,10.37
2016-08-17T03:51:55.003Z,10.44
2016-08-17T03:52:54.974Z,10.36
2016-08-17T03:53:54.981Z,10.4
2016-08-17T03:54:54.976Z,10.44
2016-08-17T03:55:54.995Z,10.37
2016-08-17T03:56:54.963Z,10.34
2016-08-17T03:57:54.946Z,10.34
2016-08-17T03:58:54.958Z,10.26
2016-08-17T03:59:54.964Z,10.25
2016-08-17T04:00:54.974Z,10.28
2016-08-17T04:01:54.975Z,10.26
2016-08-17T04:02:55.623Z,10.32
2016-08-17T04:03:54.974Z,10.36
2016-08-17T04:04:54.992Z,10.25
2016-08-17T04:05:55.005Z,10.21
2016-08-17T04:06:54.989Z,10.4
2016-08-17T04:07:55.019Z,10.3
2016-08-17T04:08:55.336Z,10.37
2016-08-17T04:09:54.989Z,10.26
2016-08-17T04:10:54.964Z,10.26
2016-08-17T04:11:55.011Z,10.4
2016-08-17T04:12:54.991Z,10.22
2016-08-17T04:13:54.980Z,10.37
2016-08-17T04:14:54.985Z,10.3
2016-08-17T04:15:55.011Z,10.24
2016-08-17T04:16:54.999Z,10.42
2016-08-17T04:17:55.006Z,10.39
2016-08-17T04:18:54.961Z,10.44
2016-08-17T04:19:55.000Z,10.39
2016-08-17T04:20:55.065Z,10.52
2016-08-17T04:21:54.995Z,10.56
2016-08-17T04:22:55.025Z,10.58
2016-08-17T04:23:54.976Z,10.65
2016-08-17T04:24:54.977Z,10.53
2016-08-17T04:25:54.992Z,10.58
2016-08-17T04:26:55.566Z,10.58
2016-08-17T04:27:56.476Z,10.66
2016-08-17T04:28:55.621Z,10.53
2016-08-17T04:29:55.029Z,10.46
2016-08-17T04:30:55.126Z,10.59
2016-08-17T04:31:55.073Z,10.51
2016-08-17T04:32:55.107Z,10.58
2016-08-17T04:33:55.104Z,10.52
2016-08-17T04:34:54.977Z,10.62
2016-08-17T04:35:55.306Z,10.58
2016-08-17T04:36:55.069Z,10.53
2016-08-17T04:37:54.996Z,10.63
2016-08-17T04:38:55.008Z,10.59
2016-08-17T04:39:54.967Z,10.65
2016-08-17T04:40:55.020Z,10.59
2016-08-17T04:41:56.703Z,10.51
2016-08-17T04:42:55.022Z,10.63
2016-08-17T04:43:55.026Z,10.65
2016-08-17T04:44:55.021Z,10.68
2016-08-17T04:45:55.803Z,10.71
2016-08-17T04:46:54.997Z,10.77
2016-08-17T04:47:55.158Z,10.71
2016-08-17T04:48:55.039Z,10.86
2016-08-17T04:49:56.283Z,10.81
2016-08-17T04:50:55.066Z,10.73
2016-08-17T04:51:55.059Z,10.8
2016-08-17T04:52:55.021Z,10.8
2016-08-17T04:53:56.226Z,10.88
2016-08-17T04:54:55.009Z,10.89
2016-08-17T04:55:55.026Z,10.96
2016-08-17T04:56:55.912Z,10.77
2016-08-17T04:57:55.025Z,10.81
2016-08-17T04:58:55.036Z,10.95
2016-08-17T04:59:55.052Z,10.89
2016-08-17T05:00:55.007Z,10.92
2016-08-17T05:01:55.026Z,10.89
2016-08-17T05:02:56.044Z,10.94
2016-08-17T05:03:55.040Z,10.98
2016-08-17T05:04:55.032Z,11.1
2016-08-17T05:05:55.013Z,11.06
2016-08-17T05:06:55.054Z,11.09
2016-08-17T05:07:55.039Z,11.09
2016-08-17T05:08:55.039Z,11.14
2016-08-17T05:09:55.040Z,11.11
2016-08-17T05:10:55.008Z,11.1
2016-08-17T05:11:55.009Z,11.13
2016-08-17T05:12:55.029Z,11.21
2016-08-17T05:13:55.035Z,11.2
2016-08-17T05:14:55.026Z,11.25
2016-08-17T05:15:55.061Z,11.29
2016-08-17T05:16:55.039Z,11.31
2016-08-17T05:17:55.070Z,11.32
2016-08-17T05:18:55.043Z,11.35
2016-08-17T05:19:55.046Z,11.34
2016-08-17T05:20:55.077Z,11.43
2016-08-17T05:21:55.412Z,11.38
2016-08-17T05:22:55.038Z,11.43
2016-08-17T05:23:55.097Z,11.34
2016-08-17T05:24:55.045Z,11.49
2016-08-17T05:25:55.962Z,11.57
2016-08-17T05:26:55.128Z,11.59
2016-08-17T05:27:55.038Z,11.61
2016-08-17T05:28:55.033Z,11.61
2016-08-17T05:29:55.025Z,11.59
2016-08-17T05:30:55.041Z,11.59
2016-08-17T05:31:55.062Z,11.77
2016-08-17T05:32:55.266Z,11.75
2016-08-17T05:33:55.987Z,11.77
2016-08-17T05:34:55.348Z,11.77
2016-08-17T05:35:56.299Z,11.89
2016-08-17T05:36:55.988Z,11.89
2016-08-17T05:37:55.059Z,11.97
2016-08-17T05:38:55.911Z,11.94
2016-08-17T05:39:55.070Z,12.01
2016-08-17T05:40:55.089Z,11.99
2016-08-17T05:41:56.107Z,11.97
2016-08-17T05:42:55.068Z,12.08
2016-08-17T05:43:55.315Z,12.15
2016-08-17T05:44:55.073Z,12.08
2016-08-17T05:45:55.042Z,12.15
2016-08-17T05:46:55.125Z,12.21
2016-08-17T05:47:55.108Z,12.26
2016-08-17T05:48:55.074Z,12.29
2016-08-17T05:49:55.075Z,12.19
2016-08-17T05:50:55.107Z,12.27
2016-08-17T05:51:55.082Z,12.39
2016-08-17T05:52:55.040Z,12.27
2016-08-17T05:53:58.346Z,12.33
2016-08-17T05:54:55.073Z,12.49
2016-08-17T05:55:55.056Z,12.48
2016-08-17T05:56:55.183Z,12.45
2016-08-17T05:57:55.042Z,12.59
2016-08-17T05:58:55.089Z,12.57
2016-08-17T05:59:55.070Z,12.52
2016-08-17T06:00:55.055Z,12.51
2016-08-17T06:01:55.070Z,12.66
2016-08-17T06:02:55.211Z,12.75
2016-08-17T06:03:55.158Z,12.64
2016-08-17T06:04:55.124Z,12.81
2016-08-17T06:05:55.170Z,12.7
2016-08-17T06:06:55.100Z,12.93
2016-08-17T06:07:55.106Z,12.95
2016-08-17T06:08:55.107Z,12.89
2016-08-17T06:09:55.075Z,12.89
2016-08-17T06:10:55.501Z,12.92
2016-08-17T06:11:55.162Z,13.09
2016-08-17T06:12:55.226Z,12.97
2016-08-17T06:13:55.076Z,13.06
2016-08-17T06:14:55.122Z,13.07
2016-08-17T06:15:55.117Z,13.06
2016-08-17T06:16:55.107Z,13.2
2016-08-17T06:17:55.224Z,13.21
2016-08-17T06:18:55.092Z,13.32
2016-08-17T06:19:55.086Z,13.3
2016-08-17T06:20:55.079Z,13.44
2016-08-17T06:21:55.096Z,13.44
2016-08-17T06:22:55.105Z,13.43
2016-08-17T06:23:55.162Z,13.55
2016-08-17T06:24:55.132Z,13.54
2016-08-17T06:25:55.157Z,13.63
2016-08-17T06:26:55.748Z,13.8
2016-08-17T06:27:55.080Z,13.74
2016-08-17T06:28:55.105Z,13.79
2016-08-17T06:29:55.124Z,13.84
2016-08-17T06:30:55.109Z,13.79
2016-08-17T06:31:55.093Z,13.92
2016-08-17T06:32:55.640Z,13.95
2016-08-17T06:33:55.228Z,13.88
2016-08-17T06:34:55.099Z,13.96
2016-08-17T06:35:55.151Z,13.91
2016-08-17T06:36:55.204Z,14.09
2016-08-17T06:37:55.129Z,14.2
2016-08-17T06:38:55.238Z,14.2
2016-08-17T06:39:55.174Z,14.27
2016-08-17T06:40:55.112Z,14.28
2016-08-17T06:41:55.170Z,14.35
2016-08-17T06:42:55.122Z,14.31
2016-08-17T06:43:55.121Z,14.42
2016-08-17T06:44:55.158Z,14.44
2016-08-17T06:45:55.113Z,14.54
2016-08-17T06:46:55.156Z,14.57
2016-08-17T06:47:55.124Z,14.62
2016-08-17T06:48:55.137Z,14.68
2016-08-17T06:49:55.136Z,14.71
2016-08-17T06:50:55.199Z,14.67
2016-08-17T06:51:55.219Z,14.75
2016-08-17T06:52:55.285Z,14.81
2016-08-17T06:53:55.173Z,14.78
2016-08-17T06:54:55.254Z,14.94
2016-08-17T06:55:55.129Z,14.9
2016-08-17T06:56:55.102Z,14.95
2016-08-17T06:57:55.152Z,14.99
2016-08-17T06:58:55.121Z,15.02
2016-08-17T06:59:55.256Z,15.11
2016-08-17T07:00:55.103Z,15.13
2016-08-17T07:01:55.214Z,15.11
2016-08-17T07:02:55.148Z,15.28
2016-08-17T07:03:55.143Z,15.19
2016-08-17T07:04:55.118Z,15.31
2016-08-17T07:05:55.113Z,15.36
2016-08-17T07:06:55.140Z,15.48
2016-08-17T07:07:55.168Z,15.42
2016-08-17T07:08:55.233Z,15.46
2016-08-17T07:09:55.159Z,15.54
2016-08-17T07:10:55.143Z,15.56
2016-08-17T07:11:55.180Z,15.67
2016-08-17T07:12:55.185Z,15.63
2016-08-17T07:13:55.195Z,15.74
2016-08-17T07:14:55.109Z,15.7
2016-08-17T07:15:55.129Z,15.75
2016-08-17T07:16:55.200Z,15.79
2016-08-17T07:17:55.214Z,15.94
2016-08-17T07:18:55.197Z,15.97
2016-08-17T07:19:55.134Z,16
2016-08-17T07:20:55.140Z,16.15
2016-08-17T07:21:55.154Z,16.12
2016-08-17T07:22:55.186Z,16.22
2016-08-17T07:23:55.194Z,16.3
2016-08-17T07:24:55.200Z,16.33
2016-08-17T07:25:55.233Z,16.37
2016-08-17T07:26:55.262Z,16.52
2016-08-17T07:27:55.252Z,16.48
2016-08-17T07:28:55.198Z,16.53
2016-08-17T07:29:55.174Z,16.59
2016-08-17T07:30:55.143Z,16.65
2016-08-17T07:31:55.214Z,16.78
2016-08-17T07:32:55.174Z,16.83
2016-08-17T07:33:55.409Z,16.71
2016-08-17T07:34:55.162Z,16.89
2016-08-17T07:35:55.154Z,16.99
2016-08-17T07:36:55.213Z,17.03
2016-08-17T07:37:55.182Z,16.89
2016-08-17T07:38:55.668Z,17.11
2016-08-17T07:39:55.161Z,17.22
2016-08-17T07:40:55.203Z,17.23
2016-08-17T07:41:55.191Z,17.32
2016-08-17T07:42:55.173Z,17.36
2016-08-17T07:43:55.153Z,17.47
2016-08-17T07:44:55.189Z,17.48
2016-08-17T07:45:55.190Z,17.62
2016-08-17T07:46:55.155Z,17.67
2016-08-17T07:47:55.155Z,17.64
2016-08-17T07:48:55.198Z,17.74
2016-08-17T07:49:55.209Z,17.84
2016-08-17T07:50:55.194Z,17.89
2016-08-17T07:51:55.169Z,18.02
2016-08-17T07:52:55.192Z,18.09
2016-08-17T07:53:55.212Z,18.06
2016-08-17T07:54:55.231Z,18.15
2016-08-17T07:55:55.194Z,18.28
2016-08-17T07:56:55.200Z,18.28
2016-08-17T07:57:55.232Z,18.47
2016-08-17T07:58:55.208Z,18.68
2016-08-17T07:59:55.210Z,18.72
2016-08-17T08:00:55.173Z,18.83
2016-08-17T08:01:55.199Z,18.97
2016-08-17T08:02:55.289Z,19.08
2016-08-17T08:03:55.247Z,19.15
2016-08-17T08:04:55.200Z,19.17
2016-08-17T08:05:55.186Z,19.15
2016-08-17T08:06:55.289Z,19.31
2016-08-17T08:07:55.204Z,19.33
2016-08-17T08:08:55.365Z,19.35
2016-08-17T08:09:55.203Z,19.47
2016-08-17T08:10:55.204Z,19.38
2016-08-17T08:11:55.226Z,19.35
2016-08-17T08:12:55.222Z,19.55
2016-08-17T08:13:55.190Z,19.57
2016-08-17T08:14:55.179Z,19.53
2016-08-17T08:15:55.303Z,19.5
2016-08-17T08:16:55.220Z,19.58
2016-08-17T08:17:55.199Z,19.61
2016-08-17T08:18:55.218Z,19.61
2016-08-17T08:19:55.236Z,19.53
2016-08-17T08:20:55.245Z,19.61
2016-08-17T08:21:55.262Z,19.51
2016-08-17T08:22:55.246Z,19.69
2016-08-17T08:23:55.248Z,19.66
2016-08-17T08:24:55.269Z,19.8
2016-08-17T08:25:55.232Z,19.79
2016-08-17T08:26:55.198Z,19.84
2016-08-17T08:27:55.275Z,19.8
2016-08-17T08:28:55.210Z,19.97
2016-08-17T08:29:55.260Z,19.83
2016-08-17T08:30:55.208Z,19.79
2016-08-17T08:31:55.195Z,19.87
2016-08-17T08:32:55.280Z,20
2016-08-17T08:33:55.223Z,20.02
2016-08-17T08:34:55.350Z,20.12
2016-08-17T08:35:56.082Z,20.12
2016-08-17T08:36:55.233Z,20.06
2016-08-17T08:37:55.403Z,20.18
2016-08-17T08:38:55.289Z,20.21
2016-08-17T08:39:55.288Z,20.23
2016-08-17T08:40:55.258Z,20.15
2016-08-17T08:41:55.224Z,20.25
2016-08-17T08:42:55.236Z,20.25
2016-08-17T08:43:55.231Z,20.27
2016-08-17T08:44:55.250Z,20.28
2016-08-17T08:45:55.278Z,20.28
2016-08-17T08:46:55.249Z,20.27
2016-08-17T08:47:55.238Z,20.28
2016-08-17T08:48:55.231Z,20.28
2016-08-17T08:49:55.206Z,20.28
2016-08-17T08:50:55.215Z,20.39
2016-08-17T08:51:55.217Z,20.27
2016-08-17T08:52:55.216Z,20.28
2016-08-17T08:53:55.217Z,20.35
2016-08-17T08:54:55.272Z,20.34
2016-08-17T08:55:55.216Z,20.34
2016-08-17T08:56:55.205Z,20.34
2016-08-17T08:57:55.232Z,20.31
2016-08-17T08:58:55.261Z,20.34
2016-08-17T08:59:55.231Z,20.49
2016-08-17T09:00:55.297Z,20.53
2016-08-17T09:01:55.278Z,20.35
2016-08-17T09:02:55.263Z,20.34
2016-08-17T09:03:55.233Z,20.5
2016-08-17T09:04:55.248Z,20.47
2016-08-17T09:05:55.248Z,20.46
2016-08-17T09:06:55.324Z,20.42
2016-08-17T09:07:55.253Z,20.47
2016-08-17T09:08:55.235Z,20.53
2016-08-17T09:09:55.252Z,20.53
2016-08-17T09:10:55.265Z,20.59
2016-08-17T09:11:55.230Z,20.56
2016-08-17T09:12:55.248Z,20.59
2016-08-17T09:13:55.259Z,20.53
2016-08-17T09:14:55.248Z,20.53
2016-08-17T09:15:55.234Z,20.56
2016-08-17T09:16:55.233Z,20.65
2016-08-17T09:17:55.270Z,20.59
2016-08-17T09:18:55.277Z,20.79
2016-08-17T09:19:55.249Z,20.69
2016-08-17T09:20:55.249Z,20.69
2016-08-17T09:21:55.235Z,20.66
2016-08-17T09:22:55.268Z,20.77
2016-08-17T09:23:55.262Z,20.81
2016-08-17T09:24:55.267Z,20.65
2016-08-17T09:25:55.263Z,20.87
2016-08-17T09:26:55.249Z,20.79
2016-08-17T09:27:55.261Z,20.76
2016-08-17T09:28:55.260Z,20.84
2016-08-17T09:29:55.267Z,20.86
2016-08-17T09:30:55.280Z,20.9
2016-08-17T09:31:55.275Z,20.89
2016-08-17T09:32:55.286Z,20.9
2016-08-17T09:33:55.322Z,20.95
2016-08-17T09:34:55.293Z,21.02
2016-08-17T09:35:55.328Z,21.06
2016-08-17T09:36:55.281Z,21.09
2016-08-17T09:37:56.008Z,21.08
2016-08-17T09:38:55.299Z,21.14
2016-08-17T09:39:55.261Z,21.17
2016-08-17T09:40:55.295Z,21.3
2016-08-17T09:41:55.283Z,21.2
2016-08-17T09:42:55.307Z,21.16
2016-08-17T09:43:55.283Z,21.3
2016-08-17T09:44:55.277Z,21.32
2016-08-17T09:45:55.279Z,21.26
2016-08-17T09:46:55.293Z,21.38
2016-08-17T09:47:55.284Z,21.29
2016-08-17T09:48:55.285Z,21.32
2016-08-17T09:49:55.267Z,21.34
2016-08-17T09:50:55.287Z,21.29
2016-08-17T09:51:55.325Z,21.36
2016-08-17T09:52:55.285Z,21.41
2016-08-17T09:53:55.322Z,21.32
2016-08-17T09:54:55.283Z,21.44
2016-08-17T09:55:55.301Z,21.5
2016-08-17T09:56:55.358Z,21.57
2016-08-17T09:57:55.330Z,21.48
2016-08-17T09:58:55.320Z,21.51
2016-08-17T09:59:55.307Z,21.39
2016-08-17T10:00:55.343Z,21.57
2016-08-17T10:01:55.311Z,21.6
2016-08-17T10:02:55.303Z,21.51
2016-08-17T10:03:55.326Z,21.51
2016-08-17T10:04:55.279Z,21.48
2016-08-17T10:05:55.328Z,21.56
2016-08-17T10:06:55.284Z,21.57
2016-08-17T10:07:55.315Z,21.59
2016-08-17T10:08:55.323Z,21.57
2016-08-17T10:09:55.312Z,21.59
2016-08-17T10:10:55.282Z,21.64
2016-08-17T10:11:55.313Z,21.6
2016-08-17T10:12:55.326Z,21.64
2016-08-17T10:13:55.346Z,21.66
2016-08-17T10:14:55.296Z,21.63
2016-08-17T10:15:55.313Z,21.72
2016-08-17T10:16:55.331Z,21.75
2016-08-17T10:17:55.326Z,21.78
2016-08-17T10:18:55.314Z,21.69
2016-08-17T10:19:55.320Z,21.78
2016-08-17T10:20:55.328Z,21.76
2016-08-17T10:21:55.350Z,21.79
2016-08-17T10:22:55.317Z,21.85
2016-08-17T10:23:55.314Z,21.76
2016-08-17T10:24:55.353Z,21.79
2016-08-17T10:25:55.644Z,21.9
2016-08-17T10:26:55.449Z,21.95
2016-08-17T10:27:55.432Z,21.87
2016-08-17T10:28:55.420Z,21.92
2016-08-17T10:29:55.401Z,21.97
2016-08-17T10:30:56.015Z,21.97
2016-08-17T10:31:55.396Z,21.94
2016-08-17T10:32:55.699Z,21.95
2016-08-17T10:33:55.714Z,22.04
2016-08-17T10:34:55.343Z,22.04
2016-08-17T10:35:55.364Z,21.98
2016-08-17T10:36:55.403Z,21.91
2016-08-17T10:37:55.373Z,21.98
2016-08-17T10:38:55.396Z,21.98
2016-08-17T10:39:55.389Z,22.02
2016-08-17T10:40:55.365Z,22.12
2016-08-17T10:41:55.343Z,22.12
2016-08-17T10:42:55.469Z,22.16
2016-08-17T10:43:55.341Z,22.14
2016-08-17T10:44:55.406Z,22.13
2016-08-17T10:45:55.413Z,22.22
2016-08-17T10:46:55.374Z,22.28
2016-08-17T10:47:55.344Z,22.29
2016-08-17T10:48:55.356Z,22.19
2016-08-17T10:49:55.353Z,22.35
2016-08-17T10:50:55.631Z,22.31
2016-08-17T10:51:55.368Z,22.29
2016-08-17T10:52:55.443Z,22.27
2016-08-17T10:53:55.392Z,22.34
2016-08-17T10:54:55.446Z,22.37
2016-08-17T10:55:55.424Z,22.35
2016-08-17T10:56:55.374Z,22.37
2016-08-17T10:57:55.459Z,22.39
2016-08-17T10:58:55.362Z,22.32
2016-08-17T10:59:55.438Z,22.41
2016-08-17T11:00:55.380Z,22.39
2016-08-17T11:01:55.442Z,22.39
2016-08-17T11:02:55.390Z,22.38
2016-08-17T11:03:55.424Z,22.31
2016-08-17T11:04:55.424Z,22.38
2016-08-17T11:05:55.383Z,22.35
2016-08-17T11:06:55.386Z,22.39
2016-08-17T11:07:55.405Z,22.52
2016-08-17T11:08:55.419Z,22.46
2016-08-17T11:09:55.388Z,22.38
2016-08-17T11:10:55.410Z,22.49
2016-08-17T11:11:56.394Z,22.46
2016-08-17T11:12:55.394Z,22.49
2016-08-17T11:13:55.435Z,22.47
2016-08-17T11:14:55.435Z,22.54
2016-08-17T11:15:55.434Z,22.54
2016-08-17T11:16:55.414Z,22.59
2016-08-17T11:17:55.388Z,22.65
2016-08-17T11:18:55.358Z,22.68
2016-08-17T11:19:55.375Z,22.57
2016-08-17T11:20:55.435Z,22.57
2016-08-17T11:21:55.434Z,22.62
2016-08-17T11:22:55.432Z,22.53
2016-08-17T11:23:55.468Z,22.71
2016-08-17T11:24:55.445Z,22.71
2016-08-17T11:25:55.439Z,22.59
2016-08-17T11:26:55.425Z,22.59
2016-08-17T11:27:55.436Z,22.57
2016-08-17T11:28:55.475Z,22.67
2016-08-17T11:29:55.424Z,22.65
2016-08-17T11:30:55.468Z,22.65
2016-08-17T11:31:55.443Z,22.65
2016-08-17T11:32:55.436Z,22.65
2016-08-17T11:33:55.424Z,22.64
2016-08-17T11:34:55.452Z,22.62
2016-08-17T11:35:55.436Z,22.69
2016-08-17T11:36:55.422Z,22.67
2016-08-17T11:37:55.454Z,22.57
2016-08-17T11:38:55.463Z,22.71
2016-08-17T11:39:55.457Z,22.8
2016-08-17T11:40:55.402Z,22.77
2016-08-17T11:41:55.446Z,22.67
2016-08-17T11:42:55.444Z,22.68
2016-08-17T11:43:55.437Z,22.8
2016-08-17T11:44:56.140Z,22.8
2016-08-17T11:45:55.437Z,22.78
2016-08-17T11:46:55.488Z,22.8
2016-08-17T11:47:55.398Z,22.8
2016-08-17T11:48:55.409Z,22.75
2016-08-17T11:49:55.456Z,22.93
2016-08-17T11:50:55.420Z,23.01
2016-08-17T11:51:55.448Z,22.92
2016-08-17T11:52:55.406Z,22.89
2016-08-17T11:53:55.438Z,22.92
2016-08-17T11:54:55.428Z,22.9
2016-08-17T11:55:55.426Z,23.01
2016-08-17T11:56:55.463Z,23.01
2016-08-17T11:57:55.461Z,23.09
2016-08-17T11:58:55.412Z,23.08
2016-08-17T11:59:55.497Z,23.11
2016-08-17T12:00:55.467Z,23.17
2016-08-17T12:01:55.434Z,23.15
2016-08-17T12:02:55.440Z,23.19
2016-08-17T12:03:55.439Z,23.27
2016-08-17T12:04:55.443Z,23.2
2016-08-17T12:05:55.488Z,23.15
2016-08-17T12:06:56.015Z,23.24
2016-08-17T12:07:55.480Z,23.31
2016-08-17T12:08:55.640Z,23.27
2016-08-17T12:09:56.325Z,23.34
2016-08-17T12:10:55.486Z,23.27
2016-08-17T12:11:55.483Z,23.19
2016-08-17T12:12:55.488Z,23.35
2016-08-17T12:13:55.469Z,23.26
2016-08-17T12:14:55.476Z,23.39
2016-08-17T12:15:55.499Z,23.43
2016-08-17T12:16:55.465Z,23.2
2016-08-17T12:17:55.460Z,23.42
2016-08-17T12:18:55.456Z,23.55
2016-08-17T12:19:55.473Z,23.35
2016-08-17T12:20:55.518Z,23.39
2016-08-17T12:21:55.518Z,23.46
2016-08-17T12:22:55.508Z,23.43
2016-08-17T12:23:55.491Z,23.55
2016-08-17T12:24:55.519Z,23.55
2016-08-17T12:25:55.486Z,23.58
2016-08-17T12:26:55.473Z,23.5
2016-08-17T12:27:55.484Z,23.5
2016-08-17T12:28:55.494Z,23.38
2016-08-17T12:29:55.511Z,23.53
2016-08-17T12:30:55.502Z,23.6
2016-08-17T12:31:55.484Z,23.57
2016-08-17T12:32:55.484Z,23.67
2016-08-17T12:33:55.440Z,23.61
2016-08-17T12:34:55.497Z,23.5
2016-08-17T12:35:55.486Z,23.58
2016-08-17T12:36:55.492Z,23.52
2016-08-17T12:37:55.467Z,23.57
2016-08-17T12:38:55.473Z,23.58
2016-08-17T12:39:55.453Z,23.75
2016-08-17T12:40:55.488Z,23.62
2016-08-17T12:41:55.480Z,23.79
2016-08-17T12:42:55.458Z,23.7
2016-08-17T12:43:55.484Z,23.62
2016-08-17T12:44:55.475Z,23.72
2016-08-17T12:45:55.560Z,23.77
2016-08-17T12:46:55.491Z,23.85
2016-08-17T12:47:55.457Z,23.95
2016-08-17T12:48:55.520Z,23.85
2016-08-17T12:49:55.485Z,23.87
2016-08-17T12:50:55.493Z,23.89
2016-08-17T12:51:55.475Z,24.01
2016-08-17T12:52:55.455Z,24.08
2016-08-17T12:53:55.516Z,23.86
2016-08-17T12:54:55.503Z,24.12